sensor_id;sensor_type;location;lat;lon;timestamp;temperature;humidity
38514;DHT22;24282;48.400;10.808;2022-07-22T00:01:22;19.70;77.40
38514;DHT22;24282;48.400;10.808;2022-07-22T00:03:47;19.60;77.50
38514;DHT22;24282;48.400;10.808;2022-07-22T00:06:13;19.60;77.40
38514;DHT22;24282;48.400;10.808;2022-07-22T00:08:39;19.60;77.40
38514;DHT22;24282;48.400;10.808;2022-07-22T00:11:05;19.60;77.30
38514;DHT22;24282;48.400;10.808;2022-07-22T00:13:30;19.50;77.30
38514;DHT22;24282;48.400;10.808;2022-07-22T00:15:57;19.50;77.20
38514;DHT22;24282;48.400;10.808;2022-07-22T00:18:23;19.40;77.30
38514;DHT22;24282;48.400;10.808;2022-07-22T00:20:48;19.40;77.20
38514;DHT22;24282;48.400;10.808;2022-07-22T00:23:14;19.40;77.30
38514;DHT22;24282;48.400;10.808;2022-07-22T00:25:40;19.40;77.40
38514;DHT22;24282;48.400;10.808;2022-07-22T00:28:06;19.30;77.40
38514;DHT22;24282;48.400;10.808;2022-07-22T00:30:32;19.30;77.40
38514;DHT22;24282;48.400;10.808;2022-07-22T00:32:58;19.30;77.30
38514;DHT22;24282;48.400;10.808;2022-07-22T00:35:24;19.20;77.40
38514;DHT22;24282;48.400;10.808;2022-07-22T00:37:50;19.20;77.30
38514;DHT22;24282;48.400;10.808;2022-07-22T00:40:16;19.10;77.40
38514;DHT22;24282;48.400;10.808;2022-07-22T00:42:42;19.00;77.50
38514;DHT22;24282;48.400;10.808;2022-07-22T00:45:07;19.00;77.60
38514;DHT22;24282;48.400;10.808;2022-07-22T00:47:34;19.00;77.70
38514;DHT22;24282;48.400;10.808;2022-07-22T00:49:59;19.00;77.60
38514;DHT22;24282;48.400;10.808;2022-07-22T00:52:26;19.00;77.70
38514;DHT22;24282;48.400;10.808;2022-07-22T00:54:52;18.90;77.70
38514;DHT22;24282;48.400;10.808;2022-07-22T00:57:18;18.90;77.70
38514;DHT22;24282;48.400;10.808;2022-07-22T00:59:44;18.90;77.80
38514;DHT22;24282;48.400;10.808;2022-07-22T01:02:10;18.90;77.80
38514;DHT22;24282;48.400;10.808;2022-07-22T01:04:36;18.90;77.80
38514;DHT22;24282;48.400;10.808;2022-07-22T01:07:03;18.90;77.80
38514;DHT22;24282;48.400;10.808;2022-07-22T01:09:29;18.90;77.90
38514;DHT22;24282;48.400;10.808;2022-07-22T01:11:54;18.80;78.00
38514;DHT22;24282;48.400;10.808;2022-07-22T01:14:20;18.80;78.00
38514;DHT22;24282;48.400;10.808;2022-07-22T01:16:46;18.80;78.00
38514;DHT22;24282;48.400;10.808;2022-07-22T01:19:12;18.80;78.00
38514;DHT22;24282;48.400;10.808;2022-07-22T01:21:38;18.70;78.10
38514;DHT22;24282;48.400;10.808;2022-07-22T01:24:05;18.70;78.10
38514;DHT22;24282;48.400;10.808;2022-07-22T01:26:31;18.70;78.10
38514;DHT22;24282;48.400;10.808;2022-07-22T01:28:59;18.70;78.20
38514;DHT22;24282;48.400;10.808;2022-07-22T01:31:25;18.60;78.10
38514;DHT22;24282;48.400;10.808;2022-07-22T01:33:51;18.60;78.10
38514;DHT22;24282;48.400;10.808;2022-07-22T01:36:17;18.50;78.20
38514;DHT22;24282;48.400;10.808;2022-07-22T01:38:43;18.50;78.30
38514;DHT22;24282;48.400;10.808;2022-07-22T01:41:09;18.40;78.40
38514;DHT22;24282;48.400;10.808;2022-07-22T01:43:37;18.40;78.50
38514;DHT22;24282;48.400;10.808;2022-07-22T01:46:04;18.40;78.50
38514;DHT22;24282;48.400;10.808;2022-07-22T01:48:32;18.40;78.60
38514;DHT22;24282;48.400;10.808;2022-07-22T01:50:58;18.40;78.50
38514;DHT22;24282;48.400;10.808;2022-07-22T01:53:24;18.40;78.50
38514;DHT22;24282;48.400;10.808;2022-07-22T01:55:50;18.40;78.50
38514;DHT22;24282;48.400;10.808;2022-07-22T01:58:18;18.30;78.50
38514;DHT22;24282;48.400;10.808;2022-07-22T02:00:45;18.30;78.50
38514;DHT22;24282;48.400;10.808;2022-07-22T02:03:10;18.30;78.60
38514;DHT22;24282;48.400;10.808;2022-07-22T02:05:37;18.30;78.60
38514;DHT22;24282;48.400;10.808;2022-07-22T02:08:11;18.30;78.50
38514;DHT22;24282;48.400;10.808;2022-07-22T02:11:07;18.30;78.50
38514;DHT22;24282;48.400;10.808;2022-07-22T02:13:38;18.20;78.50
38514;DHT22;24282;48.400;10.808;2022-07-22T02:16:04;18.20;78.50
38514;DHT22;24282;48.400;10.808;2022-07-22T02:18:30;18.20;78.50
38514;DHT22;24282;48.400;10.808;2022-07-22T02:20:56;18.20;78.40
38514;DHT22;24282;48.400;10.808;2022-07-22T02:23:22;18.10;78.50
38514;DHT22;24282;48.400;10.808;2022-07-22T02:25:48;18.10;78.50
38514;DHT22;24282;48.400;10.808;2022-07-22T02:28:16;18.10;78.50
38514;DHT22;24282;48.400;10.808;2022-07-22T02:30:42;18.10;78.50
38514;DHT22;24282;48.400;10.808;2022-07-22T02:33:08;18.10;78.40
38514;DHT22;24282;48.400;10.808;2022-07-22T02:35:34;18.10;78.40
38514;DHT22;24282;48.400;10.808;2022-07-22T02:38:00;18.00;78.40
38514;DHT22;24282;48.400;10.808;2022-07-22T02:40:26;18.00;78.30
38514;DHT22;24282;48.400;10.808;2022-07-22T02:42:51;18.00;78.30
38514;DHT22;24282;48.400;10.808;2022-07-22T02:45:18;17.90;78.30
38514;DHT22;24282;48.400;10.808;2022-07-22T02:47:49;17.90;78.30
38514;DHT22;24282;48.400;10.808;2022-07-22T02:50:16;17.90;78.30
38514;DHT22;24282;48.400;10.808;2022-07-22T02:52:42;17.90;78.40
38514;DHT22;24282;48.400;10.808;2022-07-22T02:55:10;17.90;78.40
38514;DHT22;24282;48.400;10.808;2022-07-22T02:57:36;17.80;78.40
38514;DHT22;24282;48.400;10.808;2022-07-22T03:00:03;17.80;78.50
38514;DHT22;24282;48.400;10.808;2022-07-22T03:02:33;17.80;78.30
38514;DHT22;24282;48.400;10.808;2022-07-22T03:04:59;17.80;78.50
38514;DHT22;24282;48.400;10.808;2022-07-22T03:07:25;17.70;78.40
38514;DHT22;24282;48.400;10.808;2022-07-22T03:09:51;17.70;78.40
38514;DHT22;24282;48.400;10.808;2022-07-22T03:12:17;17.60;78.50
38514;DHT22;24282;48.400;10.808;2022-07-22T03:14:44;17.60;78.60
38514;DHT22;24282;48.400;10.808;2022-07-22T03:17:10;17.60;78.50
38514;DHT22;24282;48.400;10.808;2022-07-22T03:19:37;17.50;78.50
38514;DHT22;24282;48.400;10.808;2022-07-22T03:22:02;17.50;78.60
38514;DHT22;24282;48.400;10.808;2022-07-22T03:24:28;17.50;78.60
38514;DHT22;24282;48.400;10.808;2022-07-22T03:26:54;17.50;78.50
38514;DHT22;24282;48.400;10.808;2022-07-22T03:29:20;17.40;78.40
38514;DHT22;24282;48.400;10.808;2022-07-22T03:31:46;17.40;78.50
38514;DHT22;24282;48.400;10.808;2022-07-22T03:34:12;17.40;78.50
38514;DHT22;24282;48.400;10.808;2022-07-22T03:36:44;17.30;78.50
38514;DHT22;24282;48.400;10.808;2022-07-22T03:39:10;17.30;78.60
38514;DHT22;24282;48.400;10.808;2022-07-22T03:41:35;17.30;78.70
38514;DHT22;24282;48.400;10.808;2022-07-22T03:44:01;17.20;78.80
38514;DHT22;24282;48.400;10.808;2022-07-22T03:46:27;17.20;78.90
38514;DHT22;24282;48.400;10.808;2022-07-22T03:48:53;17.20;78.80
38514;DHT22;24282;48.400;10.808;2022-07-22T03:51:19;17.20;78.90
38514;DHT22;24282;48.400;10.808;2022-07-22T03:53:45;17.10;79.00
38514;DHT22;24282;48.400;10.808;2022-07-22T03:56:11;17.20;79.10
38514;DHT22;24282;48.400;10.808;2022-07-22T03:58:37;17.10;79.20
38514;DHT22;24282;48.400;10.808;2022-07-22T04:01:04;17.10;79.30
38514;DHT22;24282;48.400;10.808;2022-07-22T04:03:30;17.10;79.40
38514;DHT22;24282;48.400;10.808;2022-07-22T04:06:08;17.10;79.40
38514;DHT22;24282;48.400;10.808;2022-07-22T04:08:42;17.10;79.60
38514;DHT22;24282;48.400;10.808;2022-07-22T04:11:08;17.10;79.60
38514;DHT22;24282;48.400;10.808;2022-07-22T04:13:34;17.10;79.60
38514;DHT22;24282;48.400;10.808;2022-07-22T04:16:00;17.10;79.40
38514;DHT22;24282;48.400;10.808;2022-07-22T04:18:30;17.20;79.20
38514;DHT22;24282;48.400;10.808;2022-07-22T04:20:56;17.20;79.20
38514;DHT22;24282;48.400;10.808;2022-07-22T04:23:30;17.20;79.10
38514;DHT22;24282;48.400;10.808;2022-07-22T04:26:16;17.10;79.20
38514;DHT22;24282;48.400;10.808;2022-07-22T04:28:42;17.20;79.40
38514;DHT22;24282;48.400;10.808;2022-07-22T04:31:07;17.20;79.30
38514;DHT22;24282;48.400;10.808;2022-07-22T04:33:36;17.20;79.10
38514;DHT22;24282;48.400;10.808;2022-07-22T04:36:03;17.20;79.10
38514;DHT22;24282;48.400;10.808;2022-07-22T04:38:29;17.20;79.30
38514;DHT22;24282;48.400;10.808;2022-07-22T04:40:59;17.20;79.60
38514;DHT22;24282;48.400;10.808;2022-07-22T04:43:25;17.20;79.70
38514;DHT22;24282;48.400;10.808;2022-07-22T04:45:51;17.20;80.00
38514;DHT22;24282;48.400;10.808;2022-07-22T04:48:17;17.30;80.20
38514;DHT22;24282;48.400;10.808;2022-07-22T04:50:44;17.30;80.20
38514;DHT22;24282;48.400;10.808;2022-07-22T04:53:10;17.30;80.40
38514;DHT22;24282;48.400;10.808;2022-07-22T04:55:36;17.30;80.60
38514;DHT22;24282;48.400;10.808;2022-07-22T04:58:02;17.30;80.50
38514;DHT22;24282;48.400;10.808;2022-07-22T05:00:29;17.40;80.70
38514;DHT22;24282;48.400;10.808;2022-07-22T05:02:55;17.40;80.70
38514;DHT22;24282;48.400;10.808;2022-07-22T05:05:22;17.40;80.80
38514;DHT22;24282;48.400;10.808;2022-07-22T05:07:48;17.40;81.00
38514;DHT22;24282;48.400;10.808;2022-07-22T05:10:14;17.40;81.10
38514;DHT22;24282;48.400;10.808;2022-07-22T05:12:40;17.40;81.20
38514;DHT22;24282;48.400;10.808;2022-07-22T05:15:06;17.40;81.30
38514;DHT22;24282;48.400;10.808;2022-07-22T05:17:33;17.50;81.40
38514;DHT22;24282;48.400;10.808;2022-07-22T05:20:19;17.50;81.60
38514;DHT22;24282;48.400;10.808;2022-07-22T05:22:45;17.50;81.70
38514;DHT22;24282;48.400;10.808;2022-07-22T05:25:16;17.60;81.70
38514;DHT22;24282;48.400;10.808;2022-07-22T05:27:52;17.60;81.90
38514;DHT22;24282;48.400;10.808;2022-07-22T05:30:24;17.70;82.00
38514;DHT22;24282;48.400;10.808;2022-07-22T05:32:51;17.70;82.10
38514;DHT22;24282;48.400;10.808;2022-07-22T05:35:22;17.80;82.20
38514;DHT22;24282;48.400;10.808;2022-07-22T05:37:48;17.90;82.20
38514;DHT22;24282;48.400;10.808;2022-07-22T05:40:14;17.90;82.10
38514;DHT22;24282;48.400;10.808;2022-07-22T05:42:40;17.90;82.00
38514;DHT22;24282;48.400;10.808;2022-07-22T05:45:06;18.00;82.10
38514;DHT22;24282;48.400;10.808;2022-07-22T05:47:32;18.10;82.10
38514;DHT22;24282;48.400;10.808;2022-07-22T05:49:58;18.10;82.20
38514;DHT22;24282;48.400;10.808;2022-07-22T05:52:23;18.20;82.50
38514;DHT22;24282;48.400;10.808;2022-07-22T05:54:49;18.20;82.50
38514;DHT22;24282;48.400;10.808;2022-07-22T05:57:15;18.30;82.50
38514;DHT22;24282;48.400;10.808;2022-07-22T05:59:42;18.30;82.60
38514;DHT22;24282;48.400;10.808;2022-07-22T06:02:08;18.40;82.80
38514;DHT22;24282;48.400;10.808;2022-07-22T06:04:46;18.40;82.80
38514;DHT22;24282;48.400;10.808;2022-07-22T06:07:13;18.50;82.70
38514;DHT22;24282;48.400;10.808;2022-07-22T06:09:40;18.60;82.60
38514;DHT22;24282;48.400;10.808;2022-07-22T06:12:06;18.70;82.50
38514;DHT22;24282;48.400;10.808;2022-07-22T06:14:33;18.70;82.30
38514;DHT22;24282;48.400;10.808;2022-07-22T06:16:59;18.80;82.00
38514;DHT22;24282;48.400;10.808;2022-07-22T06:19:25;18.90;82.10
38514;DHT22;24282;48.400;10.808;2022-07-22T06:21:51;18.90;82.20
38514;DHT22;24282;48.400;10.808;2022-07-22T06:24:17;19.00;82.40
38514;DHT22;24282;48.400;10.808;2022-07-22T06:26:43;19.10;82.30
38514;DHT22;24282;48.400;10.808;2022-07-22T06:29:10;19.10;81.80
38514;DHT22;24282;48.400;10.808;2022-07-22T06:31:36;19.20;81.60
38514;DHT22;24282;48.400;10.808;2022-07-22T06:34:02;19.30;81.70
38514;DHT22;24282;48.400;10.808;2022-07-22T06:36:40;19.30;81.60
38514;DHT22;24282;48.400;10.808;2022-07-22T06:39:05;19.40;81.30
38514;DHT22;24282;48.400;10.808;2022-07-22T06:41:49;19.40;81.30
38514;DHT22;24282;48.400;10.808;2022-07-22T06:44:35;19.50;81.10
38514;DHT22;24282;48.400;10.808;2022-07-22T06:47:11;19.60;81.10
38514;DHT22;24282;48.400;10.808;2022-07-22T06:49:38;19.70;81.00
38514;DHT22;24282;48.400;10.808;2022-07-22T06:52:04;19.80;80.80
38514;DHT22;24282;48.400;10.808;2022-07-22T06:54:29;19.80;80.60
38514;DHT22;24282;48.400;10.808;2022-07-22T06:56:57;19.90;80.40
38514;DHT22;24282;48.400;10.808;2022-07-22T06:59:28;20.00;80.20
38514;DHT22;24282;48.400;10.808;2022-07-22T07:01:54;20.00;80.20
38514;DHT22;24282;48.400;10.808;2022-07-22T07:04:20;20.20;79.80
38514;DHT22;24282;48.400;10.808;2022-07-22T07:06:46;20.20;79.40
38514;DHT22;24282;48.400;10.808;2022-07-22T07:09:37;20.30;79.30
38514;DHT22;24282;48.400;10.808;2022-07-22T07:12:13;20.40;79.10
38514;DHT22;24282;48.400;10.808;2022-07-22T07:14:57;20.50;78.80
38514;DHT22;24282;48.400;10.808;2022-07-22T07:17:23;20.50;78.60
38514;DHT22;24282;48.400;10.808;2022-07-22T07:19:50;20.60;78.40
38514;DHT22;24282;48.400;10.808;2022-07-22T07:22:16;20.70;78.00
38514;DHT22;24282;48.400;10.808;2022-07-22T07:24:41;20.80;78.10
38514;DHT22;24282;48.400;10.808;2022-07-22T07:27:07;20.90;77.90
38514;DHT22;24282;48.400;10.808;2022-07-22T07:29:34;20.90;77.60
38514;DHT22;24282;48.400;10.808;2022-07-22T07:32:00;21.00;77.60
38514;DHT22;24282;48.400;10.808;2022-07-22T07:34:26;21.10;77.20
38514;DHT22;24282;48.400;10.808;2022-07-22T07:36:52;21.10;76.50
38514;DHT22;24282;48.400;10.808;2022-07-22T07:39:18;21.30;75.60
38514;DHT22;24282;48.400;10.808;2022-07-22T07:41:44;21.40;75.50
38514;DHT22;24282;48.400;10.808;2022-07-22T07:44:13;21.50;75.60
38514;DHT22;24282;48.400;10.808;2022-07-22T07:46:41;21.60;74.20
38514;DHT22;24282;48.400;10.808;2022-07-22T07:49:07;21.80;73.30
38514;DHT22;24282;48.400;10.808;2022-07-22T07:51:33;21.90;72.70
38514;DHT22;24282;48.400;10.808;2022-07-22T07:53:58;22.00;72.20
38514;DHT22;24282;48.400;10.808;2022-07-22T07:56:24;22.10;72.10
38514;DHT22;24282;48.400;10.808;2022-07-22T07:58:50;22.30;71.90
38514;DHT22;24282;48.400;10.808;2022-07-22T08:01:16;22.40;71.20
38514;DHT22;24282;48.400;10.808;2022-07-22T08:03:42;22.50;70.80
38514;DHT22;24282;48.400;10.808;2022-07-22T08:06:08;22.60;70.20
38514;DHT22;24282;48.400;10.808;2022-07-22T08:08:34;22.80;69.40
38514;DHT22;24282;48.400;10.808;2022-07-22T08:11:06;22.90;68.60
38514;DHT22;24282;48.400;10.808;2022-07-22T08:13:44;23.00;68.20
38514;DHT22;24282;48.400;10.808;2022-07-22T08:16:12;23.10;68.20
38514;DHT22;24282;48.400;10.808;2022-07-22T08:18:39;23.30;67.90
38514;DHT22;24282;48.400;10.808;2022-07-22T08:21:05;23.50;66.80
38514;DHT22;24282;48.400;10.808;2022-07-22T08:23:52;23.70;65.50
38514;DHT22;24282;48.400;10.808;2022-07-22T08:26:18;23.80;65.40
38514;DHT22;24282;48.400;10.808;2022-07-22T08:28:44;23.90;65.00
38514;DHT22;24282;48.400;10.808;2022-07-22T08:31:11;24.20;64.90
38514;DHT22;24282;48.400;10.808;2022-07-22T08:33:37;24.40;64.50
38514;DHT22;24282;48.400;10.808;2022-07-22T08:36:03;24.50;63.20
38514;DHT22;24282;48.400;10.808;2022-07-22T08:38:31;24.70;63.00
38514;DHT22;24282;48.400;10.808;2022-07-22T08:40:58;24.90;62.20
38514;DHT22;24282;48.400;10.808;2022-07-22T08:43:25;25.10;61.70
38514;DHT22;24282;48.400;10.808;2022-07-22T08:45:52;25.30;61.00
38514;DHT22;24282;48.400;10.808;2022-07-22T08:48:19;25.50;60.00
38514;DHT22;24282;48.400;10.808;2022-07-22T08:51:11;25.70;59.50
38514;DHT22;24282;48.400;10.808;2022-07-22T08:53:53;25.90;58.00
38514;DHT22;24282;48.400;10.808;2022-07-22T08:56:19;26.00;58.00
38514;DHT22;24282;48.400;10.808;2022-07-22T08:58:45;26.20;57.20
38514;DHT22;24282;48.400;10.808;2022-07-22T09:01:14;26.30;56.80
38514;DHT22;24282;48.400;10.808;2022-07-22T09:03:55;26.40;56.30
38514;DHT22;24282;48.400;10.808;2022-07-22T09:06:24;26.60;56.20
38514;DHT22;24282;48.400;10.808;2022-07-22T09:08:58;26.70;56.20
38514;DHT22;24282;48.400;10.808;2022-07-22T09:11:43;26.80;56.10
38514;DHT22;24282;48.400;10.808;2022-07-22T09:14:08;26.90;55.90
38514;DHT22;24282;48.400;10.808;2022-07-22T09:17:03;27.10;55.50
38514;DHT22;24282;48.400;10.808;2022-07-22T09:19:39;27.30;55.30
38514;DHT22;24282;48.400;10.808;2022-07-22T09:22:43;27.40;55.40
38514;DHT22;24282;48.400;10.808;2022-07-22T09:28:22;27.60;53.90
38514;DHT22;24282;48.400;10.808;2022-07-22T09:31:30;27.70;53.60
38514;DHT22;24282;48.400;10.808;2022-07-22T09:34:30;27.80;53.20
38514;DHT22;24282;48.400;10.808;2022-07-22T09:37:01;27.90;54.00
38514;DHT22;24282;48.400;10.808;2022-07-22T09:39:31;28.00;53.80
38514;DHT22;24282;48.400;10.808;2022-07-22T09:42:00;28.10;53.00
38514;DHT22;24282;48.400;10.808;2022-07-22T09:44:26;28.30;53.00
38514;DHT22;24282;48.400;10.808;2022-07-22T09:46:54;28.40;52.70
38514;DHT22;24282;48.400;10.808;2022-07-22T09:49:49;28.50;51.80
38514;DHT22;24282;48.400;10.808;2022-07-22T09:52:37;28.60;51.60
38514;DHT22;24282;48.400;10.808;2022-07-22T09:55:12;28.70;49.80
38514;DHT22;24282;48.400;10.808;2022-07-22T09:57:39;28.80;50.60
38514;DHT22;24282;48.400;10.808;2022-07-22T10:00:05;28.80;49.70
38514;DHT22;24282;48.400;10.808;2022-07-22T10:02:51;28.80;50.10
38514;DHT22;24282;48.400;10.808;2022-07-22T10:05:30;28.90;50.40
38514;DHT22;24282;48.400;10.808;2022-07-22T10:07:57;29.10;49.90
38514;DHT22;24282;48.400;10.808;2022-07-22T10:10:27;29.20;46.50
38514;DHT22;24282;48.400;10.808;2022-07-22T10:12:55;29.20;46.70
38514;DHT22;24282;48.400;10.808;2022-07-22T10:15:23;29.30;47.20
38514;DHT22;24282;48.400;10.808;2022-07-22T10:17:53;29.40;46.90
38514;DHT22;24282;48.400;10.808;2022-07-22T10:20:26;29.60;46.60
38514;DHT22;24282;48.400;10.808;2022-07-22T10:22:59;29.70;45.70
38514;DHT22;24282;48.400;10.808;2022-07-22T10:25:27;29.80;45.70
38514;DHT22;24282;48.400;10.808;2022-07-22T10:27:57;29.90;45.50
38514;DHT22;24282;48.400;10.808;2022-07-22T10:30:27;29.90;44.90
38514;DHT22;24282;48.400;10.808;2022-07-22T10:33:19;30.00;45.00
38514;DHT22;24282;48.400;10.808;2022-07-22T10:36:00;30.00;44.40
38514;DHT22;24282;48.400;10.808;2022-07-22T10:38:28;30.10;45.00
38514;DHT22;24282;48.400;10.808;2022-07-22T10:41:05;30.20;44.70
38514;DHT22;24282;48.400;10.808;2022-07-22T10:46:08;30.30;44.00
38514;DHT22;24282;48.400;10.808;2022-07-22T10:51:15;30.30;44.50
38514;DHT22;24282;48.400;10.808;2022-07-22T10:54:02;30.40;44.50
38514;DHT22;24282;48.400;10.808;2022-07-22T11:01:26;30.60;43.00
38514;DHT22;24282;48.400;10.808;2022-07-22T11:03:53;30.60;42.70
38514;DHT22;24282;48.400;10.808;2022-07-22T11:06:23;30.60;42.90
38514;DHT22;24282;48.400;10.808;2022-07-22T11:08:51;30.70;43.00
38514;DHT22;24282;48.400;10.808;2022-07-22T11:11:18;30.80;42.80
38514;DHT22;24282;48.400;10.808;2022-07-22T11:13:44;30.90;42.90
38514;DHT22;24282;48.400;10.808;2022-07-22T11:18:50;31.10;43.10
38514;DHT22;24282;48.400;10.808;2022-07-22T11:21:20;31.10;41.90
38514;DHT22;24282;48.400;10.808;2022-07-22T11:23:48;31.20;41.70
38514;DHT22;24282;48.400;10.808;2022-07-22T11:26:16;31.20;40.80
38514;DHT22;24282;48.400;10.808;2022-07-22T11:28:44;31.30;41.10
38514;DHT22;24282;48.400;10.808;2022-07-22T11:31:15;31.30;41.20
38514;DHT22;24282;48.400;10.808;2022-07-22T11:33:41;31.40;41.30
38514;DHT22;24282;48.400;10.808;2022-07-22T11:36:08;31.50;40.90
38514;DHT22;24282;48.400;10.808;2022-07-22T11:38:48;31.60;40.80
38514;DHT22;24282;48.400;10.808;2022-07-22T11:41:18;31.80;41.50
38514;DHT22;24282;48.400;10.808;2022-07-22T11:43:49;31.90;41.10
38514;DHT22;24282;48.400;10.808;2022-07-22T11:46:17;32.00;39.10
38514;DHT22;24282;48.400;10.808;2022-07-22T11:48:43;31.90;38.60
38514;DHT22;24282;48.400;10.808;2022-07-22T11:51:11;32.00;39.70
38514;DHT22;24282;48.400;10.808;2022-07-22T11:53:38;32.10;39.00
38514;DHT22;24282;48.400;10.808;2022-07-22T11:56:06;32.20;38.80
38514;DHT22;24282;48.400;10.808;2022-07-22T12:00:59;32.20;38.70
38514;DHT22;24282;48.400;10.808;2022-07-22T12:03:25;32.30;37.90
38514;DHT22;24282;48.400;10.808;2022-07-22T12:05:51;32.30;38.10
38514;DHT22;24282;48.400;10.808;2022-07-22T12:08:17;32.30;38.30
38514;DHT22;24282;48.400;10.808;2022-07-22T12:10:43;32.30;37.80
38514;DHT22;24282;48.400;10.808;2022-07-22T12:13:12;32.30;38.00
38514;DHT22;24282;48.400;10.808;2022-07-22T12:15:41;32.50;37.80
38514;DHT22;24282;48.400;10.808;2022-07-22T12:18:18;32.50;37.40
38514;DHT22;24282;48.400;10.808;2022-07-22T12:20:46;32.60;37.10
38514;DHT22;24282;48.400;10.808;2022-07-22T12:23:12;32.70;37.20
38514;DHT22;24282;48.400;10.808;2022-07-22T12:26:13;32.80;36.50
38514;DHT22;24282;48.400;10.808;2022-07-22T12:28:39;32.80;36.70
38514;DHT22;24282;48.400;10.808;2022-07-22T12:31:05;32.90;36.90
38514;DHT22;24282;48.400;10.808;2022-07-22T12:33:30;33.00;37.10
38514;DHT22;24282;48.400;10.808;2022-07-22T12:36:03;33.00;36.00
38514;DHT22;24282;48.400;10.808;2022-07-22T12:38:29;33.10;36.20
38514;DHT22;24282;48.400;10.808;2022-07-22T12:40:55;33.20;35.80
38514;DHT22;24282;48.400;10.808;2022-07-22T12:43:25;33.20;35.30
38514;DHT22;24282;48.400;10.808;2022-07-22T12:45:51;33.20;35.50
38514;DHT22;24282;48.400;10.808;2022-07-22T12:48:17;33.30;35.60
38514;DHT22;24282;48.400;10.808;2022-07-22T12:50:58;33.30;36.20
38514;DHT22;24282;48.400;10.808;2022-07-22T12:53:26;33.50;35.40
38514;DHT22;24282;48.400;10.808;2022-07-22T12:55:58;33.50;35.70
38514;DHT22;24282;48.400;10.808;2022-07-22T12:58:28;33.50;35.60
38514;DHT22;24282;48.400;10.808;2022-07-22T13:00:56;33.70;35.50
38514;DHT22;24282;48.400;10.808;2022-07-22T13:03:22;33.70;34.50
38514;DHT22;24282;48.400;10.808;2022-07-22T13:05:55;33.80;33.90
38514;DHT22;24282;48.400;10.808;2022-07-22T13:08:21;33.80;33.90
38514;DHT22;24282;48.400;10.808;2022-07-22T13:10:48;33.80;33.60
38514;DHT22;24282;48.400;10.808;2022-07-22T13:13:14;33.90;34.90
38514;DHT22;24282;48.400;10.808;2022-07-22T13:15:40;34.00;33.80
38514;DHT22;24282;48.400;10.808;2022-07-22T13:18:06;34.00;33.50
38514;DHT22;24282;48.400;10.808;2022-07-22T13:20:32;34.00;33.30
38514;DHT22;24282;48.400;10.808;2022-07-22T13:22:57;34.00;33.20
38514;DHT22;24282;48.400;10.808;2022-07-22T13:25:23;34.00;33.20
38514;DHT22;24282;48.400;10.808;2022-07-22T13:27:52;34.00;33.10
38514;DHT22;24282;48.400;10.808;2022-07-22T13:30:18;34.10;33.40
38514;DHT22;24282;48.400;10.808;2022-07-22T13:32:44;34.10;33.30
38514;DHT22;24282;48.400;10.808;2022-07-22T13:35:10;34.20;33.40
38514;DHT22;24282;48.400;10.808;2022-07-22T13:37:36;34.20;33.00
38514;DHT22;24282;48.400;10.808;2022-07-22T13:40:02;34.20;32.10
38514;DHT22;24282;48.400;10.808;2022-07-22T13:42:28;34.20;32.00
38514;DHT22;24282;48.400;10.808;2022-07-22T13:44:54;34.20;32.30
38514;DHT22;24282;48.400;10.808;2022-07-22T13:47:20;34.20;32.80
38514;DHT22;24282;48.400;10.808;2022-07-22T13:49:46;34.30;32.30
38514;DHT22;24282;48.400;10.808;2022-07-22T13:52:13;34.30;32.00
38514;DHT22;24282;48.400;10.808;2022-07-22T13:54:39;34.30;31.90
38514;DHT22;24282;48.400;10.808;2022-07-22T13:57:05;34.40;32.00
38514;DHT22;24282;48.400;10.808;2022-07-22T13:59:31;34.40;31.10
38514;DHT22;24282;48.400;10.808;2022-07-22T14:01:58;34.50;30.60
38514;DHT22;24282;48.400;10.808;2022-07-22T14:04:24;34.50;30.90
38514;DHT22;24282;48.400;10.808;2022-07-22T14:06:51;34.60;31.30
38514;DHT22;24282;48.400;10.808;2022-07-22T14:09:16;34.60;30.20
38514;DHT22;24282;48.400;10.808;2022-07-22T14:11:42;34.60;30.50
38514;DHT22;24282;48.400;10.808;2022-07-22T14:14:08;34.60;30.80
38514;DHT22;24282;48.400;10.808;2022-07-22T14:16:35;34.70;31.00
38514;DHT22;24282;48.400;10.808;2022-07-22T14:19:11;34.70;30.60
38514;DHT22;24282;48.400;10.808;2022-07-22T14:21:40;34.70;30.50
38514;DHT22;24282;48.400;10.808;2022-07-22T14:24:07;34.70;30.00
38514;DHT22;24282;48.400;10.808;2022-07-22T14:26:33;34.70;30.10
38514;DHT22;24282;48.400;10.808;2022-07-22T14:29:00;34.70;30.20
38514;DHT22;24282;48.400;10.808;2022-07-22T14:31:25;34.80;30.50
38514;DHT22;24282;48.400;10.808;2022-07-22T14:33:51;34.80;30.90
38514;DHT22;24282;48.400;10.808;2022-07-22T14:36:17;34.90;30.40
38514;DHT22;24282;48.400;10.808;2022-07-22T14:38:43;34.90;30.20
38514;DHT22;24282;48.400;10.808;2022-07-22T14:41:09;34.90;30.40
38514;DHT22;24282;48.400;10.808;2022-07-22T14:43:36;34.90;30.10
38514;DHT22;24282;48.400;10.808;2022-07-22T14:46:03;34.90;29.80
38514;DHT22;24282;48.400;10.808;2022-07-22T14:48:30;34.90;30.10
38514;DHT22;24282;48.400;10.808;2022-07-22T14:50:56;34.90;30.50
38514;DHT22;24282;48.400;10.808;2022-07-22T14:53:22;34.90;30.50
38514;DHT22;24282;48.400;10.808;2022-07-22T14:55:49;34.90;30.00
38514;DHT22;24282;48.400;10.808;2022-07-22T14:58:15;34.90;30.10
38514;DHT22;24282;48.400;10.808;2022-07-22T15:00:41;34.90;30.10
38514;DHT22;24282;48.400;10.808;2022-07-22T15:03:07;34.90;29.90
38514;DHT22;24282;48.400;10.808;2022-07-22T15:05:33;34.90;29.70
38514;DHT22;24282;48.400;10.808;2022-07-22T15:07:58;34.80;29.80
38514;DHT22;24282;48.400;10.808;2022-07-22T15:10:24;34.80;29.50
38514;DHT22;24282;48.400;10.808;2022-07-22T15:12:50;34.80;30.30
38514;DHT22;24282;48.400;10.808;2022-07-22T15:15:16;34.80;30.30
38514;DHT22;24282;48.400;10.808;2022-07-22T15:17:41;34.80;29.70
38514;DHT22;24282;48.400;10.808;2022-07-22T15:20:09;34.80;29.80
38514;DHT22;24282;48.400;10.808;2022-07-22T15:22:35;34.80;30.00
38514;DHT22;24282;48.400;10.808;2022-07-22T15:25:01;34.70;30.60
38514;DHT22;24282;48.400;10.808;2022-07-22T15:27:27;34.70;30.80
38514;DHT22;24282;48.400;10.808;2022-07-22T15:29:53;34.70;31.00
38514;DHT22;24282;48.400;10.808;2022-07-22T15:32:22;34.70;31.00
38514;DHT22;24282;48.400;10.808;2022-07-22T15:34:48;34.70;30.90
38514;DHT22;24282;48.400;10.808;2022-07-22T15:37:14;34.60;30.80
38514;DHT22;24282;48.400;10.808;2022-07-22T15:39:41;34.60;30.80
38514;DHT22;24282;48.400;10.808;2022-07-22T15:42:07;34.50;30.50